sensor_id;sensor_type;location;lat;lon;timestamp;temperature;humidity
57552;DHT22;43379;48.160;14.036;2023-06-10T00:00:36;19.50;99.90
57552;DHT22;43379;48.160;14.036;2023-06-10T00:03:02;19.40;99.90
57552;DHT22;43379;48.160;14.036;2023-06-10T00:05:28;19.40;99.90
57552;DHT22;43379;48.160;14.036;2023-06-10T00:07:56;19.40;99.90
57552;DHT22;43379;48.160;14.036;2023-06-10T00:10:23;19.40;99.90
57552;DHT22;43379;48.160;14.036;2023-06-10T00:12:49;19.30;99.90
57552;DHT22;43379;48.160;14.036;2023-06-10T00:15:15;19.30;99.90
57552;DHT22;43379;48.160;14.036;2023-06-10T00:17:40;19.30;99.90
57552;DHT22;43379;48.160;14.036;2023-06-10T00:20:08;19.30;99.90
57552;DHT22;43379;48.160;14.036;2023-06-10T00:22:34;19.20;99.90
57552;DHT22;43379;48.160;14.036;2023-06-10T00:25:00;19.10;99.90
57552;DHT22;43379;48.160;14.036;2023-06-10T00:27:26;19.00;99.90
57552;DHT22;43379;48.160;14.036;2023-06-10T00:29:56;19.00;99.90
57552;DHT22;43379;48.160;14.036;2023-06-10T00:32:22;19.00;99.90
57552;DHT22;43379;48.160;14.036;2023-06-10T00:34:48;19.00;99.90
57552;DHT22;43379;48.160;14.036;2023-06-10T00:37:14;19.00;99.90
57552;DHT22;43379;48.160;14.036;2023-06-10T00:39:39;19.00;99.90
57552;DHT22;43379;48.160;14.036;2023-06-10T00:42:05;18.90;99.90
57552;DHT22;43379;48.160;14.036;2023-06-10T00:44:32;18.80;99.90
57552;DHT22;43379;48.160;14.036;2023-06-10T00:46:58;18.90;99.90
57552;DHT22;43379;48.160;14.036;2023-06-10T00:49:24;18.80;99.90
57552;DHT22;43379;48.160;14.036;2023-06-10T00:51:51;18.70;99.90
57552;DHT22;43379;48.160;14.036;2023-06-10T00:54:18;18.70;99.90
57552;DHT22;43379;48.160;14.036;2023-06-10T00:56:44;18.60;99.90
57552;DHT22;43379;48.160;14.036;2023-06-10T00:59:09;18.60;99.90
57552;DHT22;43379;48.160;14.036;2023-06-10T01:01:35;18.70;99.90
57552;DHT22;43379;48.160;14.036;2023-06-10T01:04:03;18.70;99.90
57552;DHT22;43379;48.160;14.036;2023-06-10T01:12:22;18.50;99.90
57552;DHT22;43379;48.160;14.036;2023-06-10T01:14:52;18.40;99.90
57552;DHT22;43379;48.160;14.036;2023-06-10T01:17:19;18.50;99.90
57552;DHT22;43379;48.160;14.036;2023-06-10T01:19:54;18.50;99.90
57552;DHT22;43379;48.160;14.036;2023-06-10T01:22:21;18.50;99.90
57552;DHT22;43379;48.160;14.036;2023-06-10T01:24:48;18.40;99.90
57552;DHT22;43379;48.160;14.036;2023-06-10T01:27:17;18.50;99.90
57552;DHT22;43379;48.160;14.036;2023-06-10T01:29:49;18.40;99.90
57552;DHT22;43379;48.160;14.036;2023-06-10T01:32:33;18.40;99.90
57552;DHT22;43379;48.160;14.036;2023-06-10T01:35:01;18.30;99.90
57552;DHT22;43379;48.160;14.036;2023-06-10T01:37:27;18.30;99.90
57552;DHT22;43379;48.160;14.036;2023-06-10T01:39:55;18.30;99.90
57552;DHT22;43379;48.160;14.036;2023-06-10T01:42:22;18.40;99.90
57552;DHT22;43379;48.160;14.036;2023-06-10T01:44:48;18.30;99.90
57552;DHT22;43379;48.160;14.036;2023-06-10T01:47:14;18.30;99.90
57552;DHT22;43379;48.160;14.036;2023-06-10T01:49:40;18.20;99.90
57552;DHT22;43379;48.160;14.036;2023-06-10T01:52:06;18.20;99.90
57552;DHT22;43379;48.160;14.036;2023-06-10T01:54:31;18.10;99.90
57552;DHT22;43379;48.160;14.036;2023-06-10T01:57:00;18.10;99.90
57552;DHT22;43379;48.160;14.036;2023-06-10T01:59:26;18.10;99.90
57552;DHT22;43379;48.160;14.036;2023-06-10T02:01:51;18.10;99.90
57552;DHT22;43379;48.160;14.036;2023-06-10T02:04:17;18.10;99.90
57552;DHT22;43379;48.160;14.036;2023-06-10T02:06:43;18.10;99.90
57552;DHT22;43379;48.160;14.036;2023-06-10T02:09:08;18.00;99.90
57552;DHT22;43379;48.160;14.036;2023-06-10T02:11:34;18.00;99.90
57552;DHT22;43379;48.160;14.036;2023-06-10T02:13:59;18.00;99.90
57552;DHT22;43379;48.160;14.036;2023-06-10T02:16:25;17.90;99.90
57552;DHT22;43379;48.160;14.036;2023-06-10T02:18:52;18.00;99.90
57552;DHT22;43379;48.160;14.036;2023-06-10T02:21:17;17.90;99.90
57552;DHT22;43379;48.160;14.036;2023-06-10T02:23:43;18.00;99.90
57552;DHT22;43379;48.160;14.036;2023-06-10T02:26:08;17.90;99.90
57552;DHT22;43379;48.160;14.036;2023-06-10T02:28:34;17.90;99.90
57552;DHT22;43379;48.160;14.036;2023-06-10T02:31:00;17.90;99.90
57552;DHT22;43379;48.160;14.036;2023-06-10T02:33:26;17.90;99.90
57552;DHT22;43379;48.160;14.036;2023-06-10T02:35:52;17.80;99.90
57552;DHT22;43379;48.160;14.036;2023-06-10T02:38:18;17.80;99.90
57552;DHT22;43379;48.160;14.036;2023-06-10T02:40:43;17.80;99.90
57552;DHT22;43379;48.160;14.036;2023-06-10T02:43:09;17.70;99.90
57552;DHT22;43379;48.160;14.036;2023-06-10T02:45:35;17.70;99.90
57552;DHT22;43379;48.160;14.036;2023-06-10T02:48:01;17.70;99.90
57552;DHT22;43379;48.160;14.036;2023-06-10T02:50:26;17.70;99.90
57552;DHT22;43379;48.160;14.036;2023-06-10T02:52:52;17.70;99.90
57552;DHT22;43379;48.160;14.036;2023-06-10T02:55:18;17.50;99.90
57552;DHT22;43379;48.160;14.036;2023-06-10T02:57:43;17.50;99.90
57552;DHT22;43379;48.160;14.036;2023-06-10T03:00:09;17.40;99.90
57552;DHT22;43379;48.160;14.036;2023-06-10T03:02:37;17.40;99.90
57552;DHT22;43379;48.160;14.036;2023-06-10T03:05:05;17.50;99.90
57552;DHT22;43379;48.160;14.036;2023-06-10T03:07:31;17.50;99.90
57552;DHT22;43379;48.160;14.036;2023-06-10T03:09:57;17.60;99.90
57552;DHT22;43379;48.160;14.036;2023-06-10T03:12:23;17.60;99.90
57552;DHT22;43379;48.160;14.036;2023-06-10T03:14:48;17.50;99.90
57552;DHT22;43379;48.160;14.036;2023-06-10T03:17:14;17.40;99.90
57552;DHT22;43379;48.160;14.036;2023-06-10T03:19:40;17.40;99.90
57552;DHT22;43379;48.160;14.036;2023-06-10T03:22:13;17.30;99.90
57552;DHT22;43379;48.160;14.036;2023-06-10T03:24:39;17.30;99.90
57552;DHT22;43379;48.160;14.036;2023-06-10T03:27:07;17.30;99.90
57552;DHT22;43379;48.160;14.036;2023-06-10T03:29:33;17.40;99.90
57552;DHT22;43379;48.160;14.036;2023-06-10T03:31:59;17.30;99.90
57552;DHT22;43379;48.160;14.036;2023-06-10T03:34:25;17.30;99.90
57552;DHT22;43379;48.160;14.036;2023-06-10T03:36:51;17.30;99.90
57552;DHT22;43379;48.160;14.036;2023-06-10T03:39:16;17.40;99.90
57552;DHT22;43379;48.160;14.036;2023-06-10T03:41:42;17.40;99.90
57552;DHT22;43379;48.160;14.036;2023-06-10T03:44:08;17.30;99.90
57552;DHT22;43379;48.160;14.036;2023-06-10T03:46:33;17.40;99.90
57552;DHT22;43379;48.160;14.036;2023-06-10T03:48:59;17.30;99.90
57552;DHT22;43379;48.160;14.036;2023-06-10T03:51:29;17.40;99.90
57552;DHT22;43379;48.160;14.036;2023-06-10T03:53:55;17.40;99.90
57552;DHT22;43379;48.160;14.036;2023-06-10T03:56:21;17.30;99.90
57552;DHT22;43379;48.160;14.036;2023-06-10T03:58:46;17.30;99.90
57552;DHT22;43379;48.160;14.036;2023-06-10T04:01:12;17.30;99.90
57552;DHT22;43379;48.160;14.036;2023-06-10T04:03:40;17.30;99.90
57552;DHT22;43379;48.160;14.036;2023-06-10T04:06:07;17.40;99.90
57552;DHT22;43379;48.160;14.036;2023-06-10T04:08:33;17.30;99.90
57552;DHT22;43379;48.160;14.036;2023-06-10T04:10:59;17.30;99.90
57552;DHT22;43379;48.160;14.036;2023-06-10T04:13:24;17.30;99.90
57552;DHT22;43379;48.160;14.036;2023-06-10T04:15:50;17.30;99.90
57552;DHT22;43379;48.160;14.036;2023-06-10T04:18:16;17.20;99.90
57552;DHT22;43379;48.160;14.036;2023-06-10T04:20:42;17.30;99.90
57552;DHT22;43379;48.160;14.036;2023-06-10T04:23:09;17.30;99.90
57552;DHT22;43379;48.160;14.036;2023-06-10T04:25:35;17.30;99.90
57552;DHT22;43379;48.160;14.036;2023-06-10T04:28:01;17.40;99.90
57552;DHT22;43379;48.160;14.036;2023-06-10T04:30:26;17.40;99.90
57552;DHT22;43379;48.160;14.036;2023-06-10T04:32:52;17.50;99.90
57552;DHT22;43379;48.160;14.036;2023-06-10T04:35:18;17.50;99.90
57552;DHT22;43379;48.160;14.036;2023-06-10T04:37:43;17.60;99.90
57552;DHT22;43379;48.160;14.036;2023-06-10T04:40:09;17.60;99.90
57552;DHT22;43379;48.160;14.036;2023-06-10T04:42:35;17.60;99.90
57552;DHT22;43379;48.160;14.036;2023-06-10T04:45:01;17.70;99.90
57552;DHT22;43379;48.160;14.036;2023-06-10T04:47:29;17.70;99.90
57552;DHT22;43379;48.160;14.036;2023-06-10T04:49:58;17.70;99.90
57552;DHT22;43379;48.160;14.036;2023-06-10T04:52:24;17.70;99.90
57552;DHT22;43379;48.160;14.036;2023-06-10T04:54:50;17.70;99.90
57552;DHT22;43379;48.160;14.036;2023-06-10T04:57:15;17.70;99.90
57552;DHT22;43379;48.160;14.036;2023-06-10T04:59:41;17.70;99.90
57552;DHT22;43379;48.160;14.036;2023-06-10T05:02:07;17.60;99.90
57552;DHT22;43379;48.160;14.036;2023-06-10T05:04:32;17.60;99.90
57552;DHT22;43379;48.160;14.036;2023-06-10T05:06:58;17.60;99.90
57552;DHT22;43379;48.160;14.036;2023-06-10T05:09:24;17.70;99.90
57552;DHT22;43379;48.160;14.036;2023-06-10T05:11:51;17.80;99.90
57552;DHT22;43379;48.160;14.036;2023-06-10T05:14:19;17.80;99.90
57552;DHT22;43379;48.160;14.036;2023-06-10T05:16:46;17.90;99.90
57552;DHT22;43379;48.160;14.036;2023-06-10T05:19:12;18.00;99.90
57552;DHT22;43379;48.160;14.036;2023-06-10T05:21:37;18.00;99.90
57552;DHT22;43379;48.160;14.036;2023-06-10T05:24:03;18.10;99.90
57552;DHT22;43379;48.160;14.036;2023-06-10T05:26:29;18.10;99.90
57552;DHT22;43379;48.160;14.036;2023-06-10T05:28:57;18.20;99.90
57552;DHT22;43379;48.160;14.036;2023-06-10T05:31:22;18.30;99.90
57552;DHT22;43379;48.160;14.036;2023-06-10T05:33:48;18.50;99.90
57552;DHT22;43379;48.160;14.036;2023-06-10T05:36:14;18.70;99.90
57552;DHT22;43379;48.160;14.036;2023-06-10T05:38:39;18.80;99.90
57552;DHT22;43379;48.160;14.036;2023-06-10T05:41:05;18.80;99.90
57552;DHT22;43379;48.160;14.036;2023-06-10T05:43:31;19.00;99.90
57552;DHT22;43379;48.160;14.036;2023-06-10T05:45:56;19.20;99.90
57552;DHT22;43379;48.160;14.036;2023-06-10T05:48:22;19.20;99.90
57552;DHT22;43379;48.160;14.036;2023-06-10T05:50:48;19.30;99.90
57552;DHT22;43379;48.160;14.036;2023-06-10T05:53:16;19.40;99.90
57552;DHT22;43379;48.160;14.036;2023-06-10T05:55:43;19.50;99.90
57552;DHT22;43379;48.160;14.036;2023-06-10T05:58:10;19.60;99.90
57552;DHT22;43379;48.160;14.036;2023-06-10T06:00:35;19.70;99.90
57552;DHT22;43379;48.160;14.036;2023-06-10T06:03:01;19.80;99.90
57552;DHT22;43379;48.160;14.036;2023-06-10T06:05:27;19.90;99.90
57552;DHT22;43379;48.160;14.036;2023-06-10T06:07:52;20.00;99.90
57552;DHT22;43379;48.160;14.036;2023-06-10T06:10:18;20.10;99.90
57552;DHT22;43379;48.160;14.036;2023-06-10T06:12:44;20.20;99.90
57552;DHT22;43379;48.160;14.036;2023-06-10T06:15:11;20.30;99.90
57552;DHT22;43379;48.160;14.036;2023-06-10T06:17:36;20.30;99.90
57552;DHT22;43379;48.160;14.036;2023-06-10T06:20:03;20.50;99.90
57552;DHT22;43379;48.160;14.036;2023-06-10T06:22:29;20.60;99.90
57552;DHT22;43379;48.160;14.036;2023-06-10T06:24:54;20.80;99.90
57552;DHT22;43379;48.160;14.036;2023-06-10T06:27:20;20.80;99.90
57552;DHT22;43379;48.160;14.036;2023-06-10T06:29:46;21.00;99.90
57552;DHT22;43379;48.160;14.036;2023-06-10T06:32:12;21.10;99.90
57552;DHT22;43379;48.160;14.036;2023-06-10T06:34:38;21.20;99.90
57552;DHT22;43379;48.160;14.036;2023-06-10T06:37:04;21.30;99.90
57552;DHT22;43379;48.160;14.036;2023-06-10T06:39:30;21.30;99.90
57552;DHT22;43379;48.160;14.036;2023-06-10T06:41:55;21.40;99.90
57552;DHT22;43379;48.160;14.036;2023-06-10T06:44:21;21.50;99.90
57552;DHT22;43379;48.160;14.036;2023-06-10T06:46:46;21.60;99.90
57552;DHT22;43379;48.160;14.036;2023-06-10T06:49:12;21.90;99.90
57552;DHT22;43379;48.160;14.036;2023-06-10T06:51:38;22.10;99.90
57552;DHT22;43379;48.160;14.036;2023-06-10T06:54:03;22.20;99.90
57552;DHT22;43379;48.160;14.036;2023-06-10T06:56:31;22.40;99.90
57552;DHT22;43379;48.160;14.036;2023-06-10T06:58:56;22.70;99.90
57552;DHT22;43379;48.160;14.036;2023-06-10T07:01:22;22.90;99.90
57552;DHT22;43379;48.160;14.036;2023-06-10T07:03:48;23.00;99.90
57552;DHT22;43379;48.160;14.036;2023-06-10T07:06:13;23.00;99.90
57552;DHT22;43379;48.160;14.036;2023-06-10T07:08:39;23.00;99.90
57552;DHT22;43379;48.160;14.036;2023-06-10T07:11:05;23.00;99.90
57552;DHT22;43379;48.160;14.036;2023-06-10T07:13:30;23.20;99.90
57552;DHT22;43379;48.160;14.036;2023-06-10T07:15:56;23.20;99.90
57552;DHT22;43379;48.160;14.036;2023-06-10T07:18:22;23.30;99.90
57552;DHT22;43379;48.160;14.036;2023-06-10T07:20:47;23.40;99.90
57552;DHT22;43379;48.160;14.036;2023-06-10T07:23:13;23.40;99.90
57552;DHT22;43379;48.160;14.036;2023-06-10T07:25:38;23.40;99.90
57552;DHT22;43379;48.160;14.036;2023-06-10T07:28:04;23.50;99.90
57552;DHT22;43379;48.160;14.036;2023-06-10T07:30:30;23.60;99.90
57552;DHT22;43379;48.160;14.036;2023-06-10T07:32:55;23.70;99.90
57552;DHT22;43379;48.160;14.036;2023-06-10T07:35:21;23.80;99.90
57552;DHT22;43379;48.160;14.036;2023-06-10T07:37:47;23.90;99.90
57552;DHT22;43379;48.160;14.036;2023-06-10T07:40:13;24.00;99.90
57552;DHT22;43379;48.160;14.036;2023-06-10T07:42:38;24.00;99.90
57552;DHT22;43379;48.160;14.036;2023-06-10T07:45:05;24.10;99.90
57552;DHT22;43379;48.160;14.036;2023-06-10T07:47:33;24.20;99.90
57552;DHT22;43379;48.160;14.036;2023-06-10T07:49:59;24.30;99.90
57552;DHT22;43379;48.160;14.036;2023-06-10T07:52:25;24.50;99.90
57552;DHT22;43379;48.160;14.036;2023-06-10T07:54:51;24.70;99.90
57552;DHT22;43379;48.160;14.036;2023-06-10T07:57:17;25.00;99.90
57552;DHT22;43379;48.160;14.036;2023-06-10T07:59:43;25.30;99.90
57552;DHT22;43379;48.160;14.036;2023-06-10T08:02:09;25.70;99.90
57552;DHT22;43379;48.160;14.036;2023-06-10T08:04:35;26.00;99.90
57552;DHT22;43379;48.160;14.036;2023-06-10T08:07:01;26.40;99.90
57552;DHT22;43379;48.160;14.036;2023-06-10T08:09:28;26.70;99.90
57552;DHT22;43379;48.160;14.036;2023-06-10T08:11:53;26.50;99.90
57552;DHT22;43379;48.160;14.036;2023-06-10T08:14:19;26.50;99.90
57552;DHT22;43379;48.160;14.036;2023-06-10T08:16:45;26.50;99.90
57552;DHT22;43379;48.160;14.036;2023-06-10T08:19:11;26.40;99.90
57552;DHT22;43379;48.160;14.036;2023-06-10T08:21:36;26.40;99.90
57552;DHT22;43379;48.160;14.036;2023-06-10T08:24:08;26.30;99.90
57552;DHT22;43379;48.160;14.036;2023-06-10T08:26:34;26.20;99.90
57552;DHT22;43379;48.160;14.036;2023-06-10T08:29:00;26.20;99.90
57552;DHT22;43379;48.160;14.036;2023-06-10T08:31:25;26.20;99.90
57552;DHT22;43379;48.160;14.036;2023-06-10T08:33:51;26.30;99.90
57552;DHT22;43379;48.160;14.036;2023-06-10T08:36:17;26.40;99.90
57552;DHT22;43379;48.160;14.036;2023-06-10T08:38:43;26.50;99.90
57552;DHT22;43379;48.160;14.036;2023-06-10T08:41:10;26.60;99.90
57552;DHT22;43379;48.160;14.036;2023-06-10T08:43:46;26.70;99.90
57552;DHT22;43379;48.160;14.036;2023-06-10T08:46:14;26.50;99.90
57552;DHT22;43379;48.160;14.036;2023-06-10T08:48:42;26.50;99.90
57552;DHT22;43379;48.160;14.036;2023-06-10T08:51:10;26.50;99.90
57552;DHT22;43379;48.160;14.036;2023-06-10T08:53:38;26.50;99.90
57552;DHT22;43379;48.160;14.036;2023-06-10T08:56:08;26.50;99.90
57552;DHT22;43379;48.160;14.036;2023-06-10T08:58:35;26.50;99.90
57552;DHT22;43379;48.160;14.036;2023-06-10T09:01:10;26.60;99.90
57552;DHT22;43379;48.160;14.036;2023-06-10T09:03:39;26.60;99.90
57552;DHT22;43379;48.160;14.036;2023-06-10T09:06:05;26.80;99.90
57552;DHT22;43379;48.160;14.036;2023-06-10T09:08:33;27.00;99.90
57552;DHT22;43379;48.160;14.036;2023-06-10T09:11:00;27.20;99.90
57552;DHT22;43379;48.160;14.036;2023-06-10T09:13:26;27.40;99.90
57552;DHT22;43379;48.160;14.036;2023-06-10T09:15:51;27.40;99.90
57552;DHT22;43379;48.160;14.036;2023-06-10T09:18:17;27.70;99.90
57552;DHT22;43379;48.160;14.036;2023-06-10T09:20:43;27.50;99.90
57552;DHT22;43379;48.160;14.036;2023-06-10T09:23:09;27.60;99.90
57552;DHT22;43379;48.160;14.036;2023-06-10T09:25:37;27.60;99.90
57552;DHT22;43379;48.160;14.036;2023-06-10T09:28:03;27.60;99.10
57552;DHT22;43379;48.160;14.036;2023-06-10T09:30:33;27.60;99.00
57552;DHT22;43379;48.160;14.036;2023-06-10T09:33:09;27.50;98.70
57552;DHT22;43379;48.160;14.036;2023-06-10T09:35:35;27.50;99.00
57552;DHT22;43379;48.160;14.036;2023-06-10T09:38:02;27.50;98.70
57552;DHT22;43379;48.160;14.036;2023-06-10T09:40:28;27.60;98.40
57552;DHT22;43379;48.160;14.036;2023-06-10T09:43:00;27.50;98.00
57552;DHT22;43379;48.160;14.036;2023-06-10T09:45:30;27.50;98.50
57552;DHT22;43379;48.160;14.036;2023-06-10T09:48:00;27.30;97.40
57552;DHT22;43379;48.160;14.036;2023-06-10T09:50:25;27.20;98.10
57552;DHT22;43379;48.160;14.036;2023-06-10T09:52:51;27.20;97.80
57552;DHT22;43379;48.160;14.036;2023-06-10T09:55:17;27.10;98.20
57552;DHT22;43379;48.160;14.036;2023-06-10T09:57:43;27.10;98.80
57552;DHT22;43379;48.160;14.036;2023-06-10T10:00:14;27.00;98.00
57552;DHT22;43379;48.160;14.036;2023-06-10T10:02:49;27.00;99.10
57552;DHT22;43379;48.160;14.036;2023-06-10T10:05:16;27.20;98.30
57552;DHT22;43379;48.160;14.036;2023-06-10T10:07:43;27.30;99.50
57552;DHT22;43379;48.160;14.036;2023-06-10T10:10:09;27.40;99.00
57552;DHT22;43379;48.160;14.036;2023-06-10T10:12:37;27.40;98.00
57552;DHT22;43379;48.160;14.036;2023-06-10T10:15:04;27.20;97.90
57552;DHT22;43379;48.160;14.036;2023-06-10T10:17:32;27.20;98.30
57552;DHT22;43379;48.160;14.036;2023-06-10T10:20:05;27.20;98.00
57552;DHT22;43379;48.160;14.036;2023-06-10T10:22:43;27.10;97.20
57552;DHT22;43379;48.160;14.036;2023-06-10T10:25:16;26.70;96.40
57552;DHT22;43379;48.160;14.036;2023-06-10T10:28:11;26.70;97.60
57552;DHT22;43379;48.160;14.036;2023-06-10T10:30:43;26.80;98.50
57552;DHT22;43379;48.160;14.036;2023-06-10T10:33:21;26.90;97.30
57552;DHT22;43379;48.160;14.036;2023-06-10T10:35:49;27.00;97.90
57552;DHT22;43379;48.160;14.036;2023-06-10T10:38:15;27.10;97.60
57552;DHT22;43379;48.160;14.036;2023-06-10T10:40:42;27.20;97.30
57552;DHT22;43379;48.160;14.036;2023-06-10T10:43:09;27.00;96.50
57552;DHT22;43379;48.160;14.036;2023-06-10T10:45:35;26.90;96.40
57552;DHT22;43379;48.160;14.036;2023-06-10T10:48:05;27.00;97.10
57552;DHT22;43379;48.160;14.036;2023-06-10T10:50:31;27.20;97.10
57552;DHT22;43379;48.160;14.036;2023-06-10T10:53:04;27.20;96.40
57552;DHT22;43379;48.160;14.036;2023-06-10T10:55:31;27.10;97.40
57552;DHT22;43379;48.160;14.036;2023-06-10T10:58:05;27.00;97.90
57552;DHT22;43379;48.160;14.036;2023-06-10T11:00:32;27.00;97.90
57552;DHT22;43379;48.160;14.036;2023-06-10T11:03:07;26.90;97.40
57552;DHT22;43379;48.160;14.036;2023-06-10T11:05:42;26.80;97.00
57552;DHT22;43379;48.160;14.036;2023-06-10T11:08:10;26.80;96.60
57552;DHT22;43379;48.160;14.036;2023-06-10T11:10:37;26.70;97.20
57552;DHT22;43379;48.160;14.036;2023-06-10T11:13:29;26.80;97.80
57552;DHT22;43379;48.160;14.036;2023-06-10T11:15:58;26.90;97.80
57552;DHT22;43379;48.160;14.036;2023-06-10T11:18:25;26.80;96.70
57552;DHT22;43379;48.160;14.036;2023-06-10T11:20:59;26.90;97.00
57552;DHT22;43379;48.160;14.036;2023-06-10T11:23:26;26.70;96.50
57552;DHT22;43379;48.160;14.036;2023-06-10T11:28:41;26.50;95.90
57552;DHT22;43379;48.160;14.036;2023-06-10T11:31:09;26.60;96.90
57552;DHT22;43379;48.160;14.036;2023-06-10T11:33:38;26.50;96.80
57552;DHT22;43379;48.160;14.036;2023-06-10T11:36:07;26.60;96.30
57552;DHT22;43379;48.160;14.036;2023-06-10T11:38:33;26.60;97.50
57552;DHT22;43379;48.160;14.036;2023-06-10T11:40:59;26.80;98.00
57552;DHT22;43379;48.160;14.036;2023-06-10T11:43:25;26.70;95.80
57552;DHT22;43379;48.160;14.036;2023-06-10T11:45:54;26.90;96.50
57552;DHT22;43379;48.160;14.036;2023-06-10T11:48:21;26.70;97.40
57552;DHT22;43379;48.160;14.036;2023-06-10T11:50:46;26.50;97.70
57552;DHT22;43379;48.160;14.036;2023-06-10T11:53:12;26.40;97.80
57552;DHT22;43379;48.160;14.036;2023-06-10T11:55:46;26.30;98.00
57552;DHT22;43379;48.160;14.036;2023-06-10T11:58:20;26.30;98.50
57552;DHT22;43379;48.160;14.036;2023-06-10T12:00:50;26.30;99.00
57552;DHT22;43379;48.160;14.036;2023-06-10T12:03:17;26.30;99.10
57552;DHT22;43379;48.160;14.036;2023-06-10T12:05:59;26.20;99.20
57552;DHT22;43379;48.160;14.036;2023-06-10T12:08:26;26.10;99.50
57552;DHT22;43379;48.160;14.036;2023-06-10T12:10:53;26.00;98.80
57552;DHT22;43379;48.160;14.036;2023-06-10T12:13:18;25.90;98.60
57552;DHT22;43379;48.160;14.036;2023-06-10T12:15:44;25.70;98.90
57552;DHT22;43379;48.160;14.036;2023-06-10T12:18:23;25.70;98.30
57552;DHT22;43379;48.160;14.036;2023-06-10T12:20:49;25.50;98.30
57552;DHT22;43379;48.160;14.036;2023-06-10T12:23:17;25.40;98.60
57552;DHT22;43379;48.160;14.036;2023-06-10T12:25:55;25.30;99.10
57552;DHT22;43379;48.160;14.036;2023-06-10T12:28:22;25.10;99.90
57552;DHT22;43379;48.160;14.036;2023-06-10T12:30:48;25.10;99.90
57552;DHT22;43379;48.160;14.036;2023-06-10T12:33:21;25.00;99.90
57552;DHT22;43379;48.160;14.036;2023-06-10T12:35:53;24.70;99.90
57552;DHT22;43379;48.160;14.036;2023-06-10T12:38:26;24.70;99.90
57552;DHT22;43379;48.160;14.036;2023-06-10T12:41:01;24.70;99.90
57552;DHT22;43379;48.160;14.036;2023-06-10T12:43:27;24.70;99.90
57552;DHT22;43379;48.160;14.036;2023-06-10T12:45:53;24.60;99.90
57552;DHT22;43379;48.160;14.036;2023-06-10T12:48:21;24.50;99.90
57552;DHT22;43379;48.160;14.036;2023-06-10T12:50:57;24.50;99.90
57552;DHT22;43379;48.160;14.036;2023-06-10T12:53:24;24.50;99.90
57552;DHT22;43379;48.160;14.036;2023-06-10T12:55:51;24.70;99.90
57552;DHT22;43379;48.160;14.036;2023-06-10T12:58:19;24.90;99.90
57552;DHT22;43379;48.160;14.036;2023-06-10T13:00:45;25.00;99.90
57552;DHT22;43379;48.160;14.036;2023-06-10T13:03:11;25.30;99.90
57552;DHT22;43379;48.160;14.036;2023-06-10T13:05:37;25.60;99.90
57552;DHT22;43379;48.160;14.036;2023-06-10T13:08:05;25.70;99.90
57552;DHT22;43379;48.160;14.036;2023-06-10T13:10:30;25.90;99.90
57552;DHT22;43379;48.160;14.036;2023-06-10T13:12:56;26.00;99.90
57552;DHT22;43379;48.160;14.036;2023-06-10T13:15:22;26.10;99.90
57552;DHT22;43379;48.160;14.036;2023-06-10T13:17:48;26.20;99.90
57552;DHT22;43379;48.160;14.036;2023-06-10T13:20:16;26.20;99.90
57552;DHT22;43379;48.160;14.036;2023-06-10T13:22:42;26.30;99.90
57552;DHT22;43379;48.160;14.036;2023-06-10T13:25:08;26.20;99.90
57552;DHT22;43379;48.160;14.036;2023-06-10T13:27:35;26.00;99.90
57552;DHT22;43379;48.160;14.036;2023-06-10T13:30:03;26.00;99.90
57552;DHT22;43379;48.160;14.036;2023-06-10T13:32:29;25.80;99.90
57552;DHT22;43379;48.160;14.036;2023-06-10T13:34:55;25.70;99.90
57552;DHT22;43379;48.160;14.036;2023-06-10T13:37:22;25.50;99.90
57552;DHT22;43379;48.160;14.036;2023-06-10T13:39:48;25.40;99.90
57552;DHT22;43379;48.160;14.036;2023-06-10T13:42:19;25.30;99.90
57552;DHT22;43379;48.160;14.036;2023-06-10T13:44:46;25.20;99.90
57552;DHT22;43379;48.160;14.036;2023-06-10T13:47:13;25.00;99.90
57552;DHT22;43379;48.160;14.036;2023-06-10T13:49:38;25.00;99.90
57552;DHT22;43379;48.160;14.036;2023-06-10T13:52:05;25.00;99.90
57552;DHT22;43379;48.160;14.036;2023-06-10T13:54:31;24.90;99.90
57552;DHT22;43379;48.160;14.036;2023-06-10T13:56:57;24.80;99.90
57552;DHT22;43379;48.160;14.036;2023-06-10T13:59:23;24.60;99.90
57552;DHT22;43379;48.160;14.036;2023-06-10T14:01:48;24.60;99.90
57552;DHT22;43379;48.160;14.036;2023-06-10T14:04:14;24.50;99.90
57552;DHT22;43379;48.160;14.036;2023-06-10T14:06:40;24.40;99.90
57552;DHT22;43379;48.160;14.036;2023-06-10T14:09:05;24.40;99.90
57552;DHT22;43379;48.160;14.036;2023-06-10T14:11:31;24.20;99.90
57552;DHT22;43379;48.160;14.036;2023-06-10T14:13:57;24.10;99.90
57552;DHT22;43379;48.160;14.036;2023-06-10T14:16:23;24.00;99.90
57552;DHT22;43379;48.160;14.036;2023-06-10T14:18:50;23.90;99.90
57552;DHT22;43379;48.160;14.036;2023-06-10T14:21:18;23.80;99.90
57552;DHT22;43379;48.160;14.036;2023-06-10T14:23:44;23.60;99.90
57552;DHT22;43379;48.160;14.036;2023-06-10T14:26:11;23.50;99.90
57552;DHT22;43379;48.160;14.036;2023-06-10T14:28:36;23.30;99.90
57552;DHT22;43379;48.160;14.036;2023-06-10T14:31:02;23.20;99.90
57552;DHT22;43379;48.160;14.036;2023-06-10T14:33:28;22.90;99.90
57552;DHT22;43379;48.160;14.036;2023-06-10T14:35:54;22.90;99.90
57552;DHT22;43379;48.160;14.036;2023-06-10T14:38:20;22.60;99.90
57552;DHT22;43379;48.160;14.036;2023-06-10T14:40:45;22.50;99.90
57552;DHT22;43379;48.160;14.036;2023-06-10T14:43:11;22.50;99.90
57552;DHT22;43379;48.160;14.036;2023-06-10T14:45:38;22.50;99.90
57552;DHT22;43379;48.160;14.036;2023-06-10T14:48:04;22.30;99.90
57552;DHT22;43379;48.160;14.036;2023-06-10T14:50:31;22.20;99.90
57552;DHT22;43379;48.160;14.036;2023-06-10T14:52:58;22.10;99.90
57552;DHT22;43379;48.160;14.036;2023-06-10T14:55:23;21.90;99.90
57552;DHT22;43379;48.160;14.036;2023-06-10T14:57:49;21.90;99.90
57552;DHT22;43379;48.160;14.036;2023-06-10T15:00:15;21.80;99.90
57552;DHT22;43379;48.160;14.036;2023-06-10T15:02:45;21.80;99.90
57552;DHT22;43379;48.160;14.036;2023-06-10T15:05:17;21.70;99.90
57552;DHT22;43379;48.160;14.036;2023-06-10T15:07:43;21.60;99.90
57552;DHT22;43379;48.160;14.036;2023-06-10T15:10:09;21.60;99.90
57552;DHT22;43379;48.160;14.036;2023-06-10T15:12:35;21.60;99.90
57552;DHT22;43379;48.160;14.036;2023-06-10T15:15:01;21.60;99.90
57552;DHT22;43379;48.160;14.036;2023-06-10T15:17:27;21.60;99.90
57552;DHT22;43379;48.160;14.036;2023-06-10T15:19:53;21.60;99.90
57552;DHT22;43379;48.160;14.036;2023-06-10T15:22:19;21.50;99.90